sensor_id;sensor_type;location;lat;lon;timestamp;pressure;altitude;pressure_sealevel;temperature;humidity
44027;BME280;29696;55.698;37.460;2023-02-02T00:01:48;98480.31;;;-0.44;77.16
44027;BME280;29696;55.698;37.460;2023-02-02T00:04:17;98480.78;;;-0.52;76.56
44027;BME280;29696;55.698;37.460;2023-02-02T00:06:44;98473.84;;;-0.65;76.01
44027;BME280;29696;55.698;37.460;2023-02-02T00:09:13;98489.28;;;-0.64;76.30
44027;BME280;29696;55.698;37.460;2023-02-02T00:11:40;98483.91;;;-0.75;76.17
44027;BME280;29696;55.698;37.460;2023-02-02T00:14:07;98485.22;;;-0.82;76.29
44027;BME280;29696;55.698;37.460;2023-02-02T00:16:36;98478.72;;;-0.89;76.49
44027;BME280;29696;55.698;37.460;2023-02-02T00:19:09;98487.41;;;-0.90;77.04
44027;BME280;29696;55.698;37.460;2023-02-02T00:21:36;98480.00;;;-0.97;76.30
44027;BME280;29696;55.698;37.460;2023-02-02T00:24:07;98483.59;;;-0.99;76.38
44027;BME280;29696;55.698;37.460;2023-02-02T00:26:35;98483.88;;;-1.04;76.55
44027;BME280;29696;55.698;37.460;2023-02-02T00:29:02;98477.88;;;-1.04;76.88
44027;BME280;29696;55.698;37.460;2023-02-02T00:31:28;98474.34;;;-1.03;76.94
44027;BME280;29696;55.698;37.460;2023-02-02T00:33:55;98475.00;;;-1.00;76.95
44027;BME280;29696;55.698;37.460;2023-02-02T00:36:21;98482.50;;;-0.95;76.57
44027;BME280;29696;55.698;37.460;2023-02-02T00:38:49;98478.22;;;-0.96;76.04
44027;BME280;29696;55.698;37.460;2023-02-02T00:41:16;98476.69;;;-0.99;75.92
44027;BME280;29696;55.698;37.460;2023-02-02T00:43:42;98482.00;;;-1.02;75.65
44027;BME280;29696;55.698;37.460;2023-02-02T00:46:17;98474.59;;;-1.08;75.34
44027;BME280;29696;55.698;37.460;2023-02-02T00:48:43;98471.88;;;-1.21;75.33
44027;BME280;29696;55.698;37.460;2023-02-02T00:51:10;98474.84;;;-1.27;75.83
44027;BME280;29696;55.698;37.460;2023-02-02T00:53:36;98483.53;;;-1.28;76.08
44027;BME280;29696;55.698;37.460;2023-02-02T00:56:02;98472.53;;;-1.31;76.24
44027;BME280;29696;55.698;37.460;2023-02-02T00:58:29;98472.34;;;-1.28;76.34
44027;BME280;29696;55.698;37.460;2023-02-02T01:00:55;98468.06;;;-1.29;75.91
44027;BME280;29696;55.698;37.460;2023-02-02T01:03:21;98469.00;;;-1.30;76.34
44027;BME280;29696;55.698;37.460;2023-02-02T01:05:48;98472.53;;;-1.31;76.00
44027;BME280;29696;55.698;37.460;2023-02-02T01:08:16;98475.19;;;-1.33;76.03
44027;BME280;29696;55.698;37.460;2023-02-02T01:10:43;98466.47;;;-1.32;75.75
44027;BME280;29696;55.698;37.460;2023-02-02T01:13:09;98475.13;;;-1.31;75.80
44027;BME280;29696;55.698;37.460;2023-02-02T01:15:36;98475.84;;;-1.29;75.90
44027;BME280;29696;55.698;37.460;2023-02-02T01:18:02;98474.19;;;-1.30;75.83
44027;BME280;29696;55.698;37.460;2023-02-02T01:20:28;98472.25;;;-1.27;75.77
44027;BME280;29696;55.698;37.460;2023-02-02T01:22:56;98475.66;;;-1.26;75.81
44027;BME280;29696;55.698;37.460;2023-02-02T01:25:23;98467.16;;;-1.28;75.33
44027;BME280;29696;55.698;37.460;2023-02-02T01:27:49;98469.66;;;-1.27;75.28
44027;BME280;29696;55.698;37.460;2023-02-02T01:30:15;98464.28;;;-1.24;75.64
44027;BME280;29696;55.698;37.460;2023-02-02T01:32:41;98469.94;;;-1.17;75.65
44027;BME280;29696;55.698;37.460;2023-02-02T01:35:08;98467.28;;;-1.16;75.27
44027;BME280;29696;55.698;37.460;2023-02-02T01:37:35;98459.50;;;-1.16;75.40
44027;BME280;29696;55.698;37.460;2023-02-02T01:40:02;98456.09;;;-1.16;75.34
44027;BME280;29696;55.698;37.460;2023-02-02T01:42:29;98466.28;;;-1.13;75.61
44027;BME280;29696;55.698;37.460;2023-02-02T01:48:04;98459.41;;;-1.14;75.23
44027;BME280;29696;55.698;37.460;2023-02-02T01:50:31;98457.66;;;-1.13;75.46
44027;BME280;29696;55.698;37.460;2023-02-02T01:53:01;98460.91;;;-1.10;75.53
44027;BME280;29696;55.698;37.460;2023-02-02T01:55:30;98469.03;;;-1.02;75.33
44027;BME280;29696;55.698;37.460;2023-02-02T01:58:23;98463.16;;;-0.89;75.39
44027;BME280;29696;55.698;37.460;2023-02-02T02:00:50;98462.03;;;-1.00;74.78
44027;BME280;29696;55.698;37.460;2023-02-02T02:03:23;98458.88;;;-0.90;74.72
44027;BME280;29696;55.698;37.460;2023-02-02T02:05:54;98460.38;;;-0.86;74.88
44027;BME280;29696;55.698;37.460;2023-02-02T02:11:13;98462.66;;;-0.96;73.57
44027;BME280;29696;55.698;37.460;2023-02-02T02:13:39;98467.97;;;-0.98;74.15
44027;BME280;29696;55.698;37.460;2023-02-02T02:20:46;98464.81;;;-0.88;74.29
44027;BME280;29696;55.698;37.460;2023-02-02T02:37:17;98448.16;;;-0.99;73.39
44027;BME280;29696;55.698;37.460;2023-02-02T02:47:13;98465.38;;;-0.98;74.18
44027;BME280;29696;55.698;37.460;2023-02-02T02:49:44;98473.91;;;-0.96;74.17
44027;BME280;29696;55.698;37.460;2023-02-02T02:52:12;98471.84;;;-0.90;74.11
44027;BME280;29696;55.698;37.460;2023-02-02T02:54:50;98469.53;;;-0.81;73.90
44027;BME280;29696;55.698;37.460;2023-02-02T03:01:44;98464.00;;;-0.75;73.14
44027;BME280;29696;55.698;37.460;2023-02-02T03:04:51;98466.13;;;-0.81;72.80
44027;BME280;29696;55.698;37.460;2023-02-02T03:07:03;98466.59;;;-0.89;72.93
44027;BME280;29696;55.698;37.460;2023-02-02T03:09:36;98464.19;;;-0.92;72.73
44027;BME280;29696;55.698;37.460;2023-02-02T03:12:05;98459.16;;;-0.95;72.71
44027;BME280;29696;55.698;37.460;2023-02-02T03:14:35;98469.38;;;-0.92;72.89
44027;BME280;29696;55.698;37.460;2023-02-02T03:17:01;98467.84;;;-0.96;72.45
44027;BME280;29696;55.698;37.460;2023-02-02T03:19:28;98467.22;;;-1.00;72.38
44027;BME280;29696;55.698;37.460;2023-02-02T03:21:54;98464.78;;;-1.03;72.38
44027;BME280;29696;55.698;37.460;2023-02-02T03:24:20;98475.00;;;-1.00;72.61
44027;BME280;29696;55.698;37.460;2023-02-02T03:26:46;98477.56;;;-1.00;72.45
44027;BME280;29696;55.698;37.460;2023-02-02T03:29:13;98473.59;;;-1.05;72.19
44027;BME280;29696;55.698;37.460;2023-02-02T03:31:39;98475.53;;;-1.09;72.38
44027;BME280;29696;55.698;37.460;2023-02-02T03:34:06;98478.94;;;-1.08;72.28
44027;BME280;29696;55.698;37.460;2023-02-02T03:36:32;98480.72;;;-1.09;72.23
44027;BME280;29696;55.698;37.460;2023-02-02T03:38:58;98479.06;;;-1.10;72.54
44027;BME280;29696;55.698;37.460;2023-02-02T03:41:25;98482.19;;;-1.05;72.64
44027;BME280;29696;55.698;37.460;2023-02-02T03:43:51;98480.63;;;-1.07;72.22
44027;BME280;29696;55.698;37.460;2023-02-02T03:46:17;98487.19;;;-1.02;72.36
44027;BME280;29696;55.698;37.460;2023-02-02T03:48:43;98479.53;;;-1.03;71.86
44027;BME280;29696;55.698;37.460;2023-02-02T03:51:12;98483.06;;;-1.04;72.17
44027;BME280;29696;55.698;37.460;2023-02-02T03:53:40;98475.44;;;-1.07;72.12
44027;BME280;29696;55.698;37.460;2023-02-02T03:56:09;98479.13;;;-1.11;72.39
44027;BME280;29696;55.698;37.460;2023-02-02T03:58:35;98482.28;;;-1.06;72.36
44027;BME280;29696;55.698;37.460;2023-02-02T04:01:03;98478.88;;;-1.07;72.58
44027;BME280;29696;55.698;37.460;2023-02-02T04:03:30;98489.13;;;-1.05;72.58
44027;BME280;29696;55.698;37.460;2023-02-02T04:05:56;98479.59;;;-1.05;72.46
44027;BME280;29696;55.698;37.460;2023-02-02T04:08:23;98479.59;;;-1.05;72.38
44027;BME280;29696;55.698;37.460;2023-02-02T04:10:49;98484.97;;;-1.08;72.19
44027;BME280;29696;55.698;37.460;2023-02-02T04:13:15;98486.91;;;-1.11;72.41
44027;BME280;29696;55.698;37.460;2023-02-02T04:15:41;98490.84;;;-1.20;72.31
44027;BME280;29696;55.698;37.460;2023-02-02T04:18:08;98484.28;;;-1.26;72.87
44027;BME280;29696;55.698;37.460;2023-02-02T04:20:34;98486.78;;;-1.24;73.50
44027;BME280;29696;55.698;37.460;2023-02-02T04:23:00;98479.00;;;-1.24;73.27
44027;BME280;29696;55.698;37.460;2023-02-02T04:25:27;98491.97;;;-1.24;73.08
44027;BME280;29696;55.698;37.460;2023-02-02T04:27:53;98493.72;;;-1.25;73.07
44027;BME280;29696;55.698;37.460;2023-02-02T04:30:19;98489.56;;;-1.27;72.97
44027;BME280;29696;55.698;37.460;2023-02-02T04:32:46;98488.81;;;-1.29;73.38
44027;BME280;29696;55.698;37.460;2023-02-02T04:35:12;98481.38;;;-1.35;73.38
44027;BME280;29696;55.698;37.460;2023-02-02T04:37:39;98496.75;;;-1.32;73.47
44027;BME280;29696;55.698;37.460;2023-02-02T04:40:05;98491.75;;;-1.35;73.57
44027;BME280;29696;55.698;37.460;2023-02-02T04:42:32;98500.44;;;-1.36;73.70
44027;BME280;29696;55.698;37.460;2023-02-02T04:45:00;98499.63;;;-1.37;73.81
44027;BME280;29696;55.698;37.460;2023-02-02T04:47:26;98493.44;;;-1.34;73.98
44027;BME280;29696;55.698;37.460;2023-02-02T04:49:52;98497.75;;;-1.35;73.88
44027;BME280;29696;55.698;37.460;2023-02-02T04:52:18;98512.47;;;-1.35;73.96
44027;BME280;29696;55.698;37.460;2023-02-02T04:54:45;98496.94;;;-1.35;73.90
44027;BME280;29696;55.698;37.460;2023-02-02T04:57:11;98502.94;;;-1.35;73.69
44027;BME280;29696;55.698;37.460;2023-02-02T04:59:37;98503.69;;;-1.33;73.76
44027;BME280;29696;55.698;37.460;2023-02-02T05:02:03;98506.22;;;-1.31;74.13
44027;BME280;29696;55.698;37.460;2023-02-02T05:04:30;98502.69;;;-1.30;74.00
44027;BME280;29696;55.698;37.460;2023-02-02T05:06:56;98507.69;;;-1.27;74.15
44027;BME280;29696;55.698;37.460;2023-02-02T05:09:22;98513.63;;;-1.25;73.92
44027;BME280;29696;55.698;37.460;2023-02-02T05:11:49;98506.09;;;-1.30;73.95
44027;BME280;29696;55.698;37.460;2023-02-02T05:14:15;98510.28;;;-1.27;74.22
44027;BME280;29696;55.698;37.460;2023-02-02T05:16:43;98508.47;;;-1.25;74.35
44027;BME280;29696;55.698;37.460;2023-02-02T05:19:11;98514.38;;;-1.23;74.45
44027;BME280;29696;55.698;37.460;2023-02-02T05:21:37;98514.47;;;-1.25;74.55
44027;BME280;29696;55.698;37.460;2023-02-02T05:24:03;98516.22;;;-1.25;74.66
44027;BME280;29696;55.698;37.460;2023-02-02T05:26:30;98517.31;;;-1.29;74.76
44027;BME280;29696;55.698;37.460;2023-02-02T05:28:56;98510.47;;;-1.30;75.09
44027;BME280;29696;55.698;37.460;2023-02-02T05:31:23;98522.31;;;-1.26;75.41
44027;BME280;29696;55.698;37.460;2023-02-02T05:33:49;98520.56;;;-1.26;75.12
44027;BME280;29696;55.698;37.460;2023-02-02T05:36:15;98509.28;;;-1.25;75.17
44027;BME280;29696;55.698;37.460;2023-02-02T05:38:42;98518.66;;;-1.22;75.60
44027;BME280;29696;55.698;37.460;2023-02-02T05:41:08;98515.06;;;-1.20;75.50
44027;BME280;29696;55.698;37.460;2023-02-02T05:43:34;98510.75;;;-1.21;75.22
44027;BME280;29696;55.698;37.460;2023-02-02T05:46:01;98513.28;;;-1.19;75.64
44027;BME280;29696;55.698;37.460;2023-02-02T05:48:27;98515.88;;;-1.19;75.63
44027;BME280;29696;55.698;37.460;2023-02-02T05:51:14;98521.25;;;-1.08;75.71
44027;BME280;29696;55.698;37.460;2023-02-02T05:53:42;98516.44;;;-1.14;75.56
44027;BME280;29696;55.698;37.460;2023-02-02T05:56:11;98520.59;;;-1.11;75.60
44027;BME280;29696;55.698;37.460;2023-02-02T05:58:37;98519.53;;;-1.07;75.54
44027;BME280;29696;55.698;37.460;2023-02-02T06:01:04;98528.78;;;-1.03;75.47
44027;BME280;29696;55.698;37.460;2023-02-02T06:03:30;98523.59;;;-1.03;75.21
44027;BME280;29696;55.698;37.460;2023-02-02T06:05:56;98530.94;;;-0.96;75.24
44027;BME280;29696;55.698;37.460;2023-02-02T06:08:23;98530.41;;;-0.86;75.10
44027;BME280;29696;55.698;37.460;2023-02-02T06:10:49;98530.97;;;-0.81;74.85
44027;BME280;29696;55.698;37.460;2023-02-02T06:13:15;98538.00;;;-0.83;74.27
44027;BME280;29696;55.698;37.460;2023-02-02T06:15:42;98532.66;;;-0.80;74.29
44027;BME280;29696;55.698;37.460;2023-02-02T06:18:09;98545.63;;;-0.80;74.21
44027;BME280;29696;55.698;37.460;2023-02-02T06:20:35;98548.22;;;-0.80;74.27
44027;BME280;29696;55.698;37.460;2023-02-02T06:23:02;98538.75;;;-0.81;74.38
44027;BME280;29696;55.698;37.460;2023-02-02T06:25:29;98544.31;;;-0.73;74.51
44027;BME280;29696;55.698;37.460;2023-02-02T06:27:56;98537.28;;;-0.71;74.37
44027;BME280;29696;55.698;37.460;2023-02-02T06:30:23;98544.59;;;-0.63;74.15
44027;BME280;29696;55.698;37.460;2023-02-02T06:32:49;98542.69;;;-0.60;73.05
44027;BME280;29696;55.698;37.460;2023-02-02T06:35:16;98541.00;;;-0.61;72.85
44027;BME280;29696;55.698;37.460;2023-02-02T06:37:42;98543.34;;;-0.56;73.36
44027;BME280;29696;55.698;37.460;2023-02-02T06:40:09;98530.19;;;-0.53;72.93
44027;BME280;29696;55.698;37.460;2023-02-02T06:42:35;98543.88;;;-0.51;72.46
44027;BME280;29696;55.698;37.460;2023-02-02T06:45:03;98542.88;;;-0.49;72.50
44027;BME280;29696;55.698;37.460;2023-02-02T06:47:31;98538.44;;;-0.47;72.49
44027;BME280;29696;55.698;37.460;2023-02-02T06:49:58;98542.41;;;-0.41;72.66
44027;BME280;29696;55.698;37.460;2023-02-02T06:52:25;98547.69;;;-0.28;72.42
44027;BME280;29696;55.698;37.460;2023-02-02T06:54:51;98545.56;;;-0.21;72.26
44027;BME280;29696;55.698;37.460;2023-02-02T06:57:17;98547.59;;;-0.12;71.69
44027;BME280;29696;55.698;37.460;2023-02-02T06:59:44;98550.88;;;-0.09;71.11
44027;BME280;29696;55.698;37.460;2023-02-02T07:02:12;98544.16;;;-0.13;70.94
44027;BME280;29696;55.698;37.460;2023-02-02T07:04:38;98538.53;;;-0.19;70.67
44027;BME280;29696;55.698;37.460;2023-02-02T07:07:05;98550.00;;;-0.09;71.38
44027;BME280;29696;55.698;37.460;2023-02-02T07:09:32;98551.13;;;0.01;71.34
44027;BME280;29696;55.698;37.460;2023-02-02T07:11:59;98552.31;;;0.10;70.80
44027;BME280;29696;55.698;37.460;2023-02-02T07:14:25;98547.97;;;0.10;70.17
44027;BME280;29696;55.698;37.460;2023-02-02T07:16:52;98552.31;;;0.10;70.13
44027;BME280;29696;55.698;37.460;2023-02-02T07:19:18;98563.16;;;0.16;70.20
44027;BME280;29696;55.698;37.460;2023-02-02T07:21:44;98555.66;;;0.12;69.57
44027;BME280;29696;55.698;37.460;2023-02-02T07:24:11;98568.09;;;0.07;69.50
44027;BME280;29696;55.698;37.460;2023-02-02T07:26:37;98557.53;;;-0.05;69.75
44027;BME280;29696;55.698;37.460;2023-02-02T07:29:04;98562.72;;;-0.05;70.14
44027;BME280;29696;55.698;37.460;2023-02-02T07:31:30;98563.66;;;-0.06;70.52
44027;BME280;29696;55.698;37.460;2023-02-02T07:33:57;98569.75;;;-0.07;70.41
44027;BME280;29696;55.698;37.460;2023-02-02T07:36:24;98568.94;;;0.07;70.85
44027;BME280;29696;55.698;37.460;2023-02-02T07:38:52;98575.22;;;0.17;70.08
44027;BME280;29696;55.698;37.460;2023-02-02T07:41:20;98578.56;;;0.19;70.09
44027;BME280;29696;55.698;37.460;2023-02-02T07:43:47;98566.38;;;0.34;69.60
44027;BME280;29696;55.698;37.460;2023-02-02T07:46:14;98577.03;;;0.44;68.92
44027;BME280;29696;55.698;37.460;2023-02-02T07:48:40;98563.84;;;0.47;68.55
44027;BME280;29696;55.698;37.460;2023-02-02T07:51:12;98575.19;;;0.46;68.13
44027;BME280;29696;55.698;37.460;2023-02-02T07:53:42;98573.22;;;0.50;68.08
44027;BME280;29696;55.698;37.460;2023-02-02T07:56:13;98570.06;;;0.44;68.04
44027;BME280;29696;55.698;37.460;2023-02-02T07:58:40;98569.78;;;0.76;68.60
44027;BME280;29696;55.698;37.460;2023-02-02T08:01:09;98580.34;;;0.87;66.92
44027;BME280;29696;55.698;37.460;2023-02-02T08:03:36;98579.44;;;0.74;66.03
44027;BME280;29696;55.698;37.460;2023-02-02T08:06:30;98580.75;;;0.81;66.99
44027;BME280;29696;55.698;37.460;2023-02-02T08:08:58;98571.69;;;0.60;66.66
44027;BME280;29696;55.698;37.460;2023-02-02T08:11:26;98570.84;;;0.59;66.89
44027;BME280;29696;55.698;37.460;2023-02-02T08:13:55;98568.56;;;0.55;66.77
44027;BME280;29696;55.698;37.460;2023-02-02T08:16:22;98589.44;;;0.53;67.16
44027;BME280;29696;55.698;37.460;2023-02-02T08:18:49;98572.19;;;0.52;67.04
44027;BME280;29696;55.698;37.460;2023-02-02T08:21:17;98586.38;;;0.61;66.88
44027;BME280;29696;55.698;37.460;2023-02-02T08:23:44;98579.84;;;0.68;66.68
44027;BME280;29696;55.698;37.460;2023-02-02T08:26:33;98581.78;;;0.79;65.84
44027;BME280;29696;55.698;37.460;2023-02-02T08:29:05;98583.97;;;0.58;65.48
44027;BME280;29696;55.698;37.460;2023-02-02T08:31:34;98574.59;;;0.55;66.19
44027;BME280;29696;55.698;37.460;2023-02-02T08:34:01;98569.63;;;0.65;66.36
44027;BME280;29696;55.698;37.460;2023-02-02T08:36:29;98566.38;;;0.76;65.81
44027;BME280;29696;55.698;37.460;2023-02-02T08:38:59;98580.44;;;0.86;65.78
44027;BME280;29696;55.698;37.460;2023-02-02T08:41:25;98575.38;;;0.70;65.02
44027;BME280;29696;55.698;37.460;2023-02-02T08:43:51;98578.19;;;0.67;65.42
44027;BME280;29696;55.698;37.460;2023-02-02T08:46:19;98571.03;;;0.71;65.73
44027;BME280;29696;55.698;37.460;2023-02-02T08:48:46;98565.41;;;0.77;65.73
44027;BME280;29696;55.698;37.460;2023-02-02T08:51:15;98564.16;;;0.97;65.47
44027;BME280;29696;55.698;37.460;2023-02-02T08:53:44;98577.56;;;1.03;64.49
44027;BME280;29696;55.698;37.460;2023-02-02T08:56:13;98577.84;;;0.99;64.18
44027;BME280;29696;55.698;37.460;2023-02-02T08:58:46;98570.81;;;1.01;65.01
44027;BME280;29696;55.698;37.460;2023-02-02T09:01:20;98573.19;;;1.04;65.27
44027;BME280;29696;55.698;37.460;2023-02-02T09:03:47;98564.84;;;0.99;64.77
44027;BME280;29696;55.698;37.460;2023-02-02T09:06:16;98575.03;;;0.89;63.86
44027;BME280;29696;55.698;37.460;2023-02-02T09:08:43;98562.81;;;0.77;64.16
44027;BME280;29696;55.698;37.460;2023-02-02T09:11:15;98577.59;;;0.76;64.79
44027;BME280;29696;55.698;37.460;2023-02-02T09:13:44;98573.72;;;0.69;64.48
44027;BME280;29696;55.698;37.460;2023-02-02T09:16:12;98563.34;;;0.69;64.36
44027;BME280;29696;55.698;37.460;2023-02-02T09:18:39;98570.34;;;0.81;64.98
44027;BME280;29696;55.698;37.460;2023-02-02T09:21:07;98573.81;;;1.07;64.18
44027;BME280;29696;55.698;37.460;2023-02-02T09:23:36;98568.56;;;1.22;62.79
44027;BME280;29696;55.698;37.460;2023-02-02T09:26:18;98566.84;;;1.35;63.16
44027;BME280;29696;55.698;37.460;2023-02-02T09:28:48;98570.13;;;1.24;62.25
44027;BME280;29696;55.698;37.460;2023-02-02T09:31:15;98567.72;;;1.21;62.27
44027;BME280;29696;55.698;37.460;2023-02-02T09:33:41;98562.31;;;1.11;62.34
44027;BME280;29696;55.698;37.460;2023-02-02T09:36:13;98570.75;;;1.15;62.47
44027;BME280;29696;55.698;37.460;2023-02-02T09:38:40;98576.22;;;1.10;62.35
44027;BME280;29696;55.698;37.460;2023-02-02T09:45:03;98572.75;;;1.37;62.37
44027;BME280;29696;55.698;37.460;2023-02-02T09:47:50;98559.84;;;1.35;62.18
44027;BME280;29696;55.698;37.460;2023-02-02T09:50:45;98565.69;;;1.52;62.56
44027;BME280;29696;55.698;37.460;2023-02-02T09:53:19;98559.22;;;1.57;62.11
44027;BME280;29696;55.698;37.460;2023-02-02T09:55:56;98556.75;;;1.56;61.43
44027;BME280;29696;55.698;37.460;2023-02-02T09:58:51;98551.31;;;1.59;61.87
44027;BME280;29696;55.698;37.460;2023-02-02T10:04:18;98552.44;;;1.55;61.71
44027;BME280;29696;55.698;37.460;2023-02-02T10:06:52;98556.81;;;1.67;61.38
44027;BME280;29696;55.698;37.460;2023-02-02T10:09:43;98548.06;;;1.81;61.36
44027;BME280;29696;55.698;37.460;2023-02-02T10:12:58;98558.69;;;1.91;61.06
44027;BME280;29696;55.698;37.460;2023-02-02T10:15:38;98552.13;;;1.85;61.28
44027;BME280;29696;55.698;37.460;2023-02-02T10:18:56;98544.09;;;2.01;61.47
44027;BME280;29696;55.698;37.460;2023-02-02T10:24:46;98550.38;;;1.86;60.00
44027;BME280;29696;55.698;37.460;2023-02-02T10:27:15;98544.66;;;1.80;60.23
44027;BME280;29696;55.698;37.460;2023-02-02T10:30:16;98542.22;;;1.90;59.99
44027;BME280;29696;55.698;37.460;2023-02-02T10:33:08;98541.91;;;1.82;60.28
44027;BME280;29696;55.698;37.460;2023-02-02T10:36:38;98547.13;;;1.82;60.82
44027;BME280;29696;55.698;37.460;2023-02-02T10:38:49;98545.16;;;1.73;61.06
44027;BME280;29696;55.698;37.460;2023-02-02T10:47:21;98534.19;;;1.93;59.78
44027;BME280;29696;55.698;37.460;2023-02-02T10:49:54;98534.97;;;1.82;60.07
44027;BME280;29696;55.698;37.460;2023-02-02T10:52:32;98533.91;;;1.72;60.96
44027;BME280;29696;55.698;37.460;2023-02-02T10:55:10;98531.66;;;1.68;61.46
44027;BME280;29696;55.698;37.460;2023-02-02T11:00:51;98521.50;;;1.37;61.61
44027;BME280;29696;55.698;37.460;2023-02-02T11:03:22;98519.25;;;1.33;61.88
44027;BME280;29696;55.698;37.460;2023-02-02T11:05:50;98515.19;;;1.29;62.59
44027;BME280;29696;55.698;37.460;2023-02-02T11:08:39;98519.03;;;1.36;62.75
44027;BME280;29696;55.698;37.460;2023-02-02T11:11:28;98529.03;;;1.42;63.05
44027;BME280;29696;55.698;37.460;2023-02-02T11:14:37;98530.81;;;1.42;63.12
44027;BME280;29696;55.698;37.460;2023-02-02T11:17:17;98529.44;;;1.36;63.03
44027;BME280;29696;55.698;37.460;2023-02-02T11:19:44;98535.16;;;1.28;62.37
44027;BME280;29696;55.698;37.460;2023-02-02T11:22:43;98535.06;;;1.30;63.04
44027;BME280;29696;55.698;37.460;2023-02-02T11:25:26;98529.44;;;1.23;63.62
44027;BME280;29696;55.698;37.460;2023-02-02T11:27:57;98532.09;;;0.96;63.72
44027;BME280;29696;55.698;37.460;2023-02-02T11:30:29;98540.63;;;0.98;63.84
44027;BME280;29696;55.698;37.460;2023-02-02T11:32:57;98535.19;;;0.88;64.03
44027;BME280;29696;55.698;37.460;2023-02-02T11:35:26;98546.41;;;0.89;64.38
44027;BME280;29696;55.698;37.460;2023-02-02T11:38:22;98549.44;;;0.96;65.14
44027;BME280;29696;55.698;37.460;2023-02-02T11:41:12;98540.38;;;0.88;65.53
44027;BME280;29696;55.698;37.460;2023-02-02T11:43:51;98532.56;;;0.76;65.33
44027;BME280;29696;55.698;37.460;2023-02-02T11:46:21;98547.41;;;0.74;65.45
44027;BME280;29696;55.698;37.460;2023-02-02T11:49:04;98549.34;;;0.84;65.61
44027;BME280;29696;55.698;37.460;2023-02-02T11:51:33;98556.41;;;0.82;65.41
44027;BME280;29696;55.698;37.460;2023-02-02T11:54:36;98543.41;;;0.95;65.48
44027;BME280;29696;55.698;37.460;2023-02-02T11:57:28;98555.03;;;0.77;65.18
44027;BME280;29696;55.698;37.460;2023-02-02T12:00:28;98556.78;;;0.76;65.45
44027;BME280;29696;55.698;37.460;2023-02-02T12:02:54;98562.72;;;0.51;65.75
44027;BME280;29696;55.698;37.460;2023-02-02T12:05:41;98553.16;;;0.52;66.87
44027;BME280;29696;55.698;37.460;2023-02-02T12:08:11;98548.28;;;0.33;66.81
44027;BME280;29696;55.698;37.460;2023-02-02T12:10:53;98548.09;;;0.36;66.91
44027;BME280;29696;55.698;37.460;2023-02-02T12:26:41;98563.75;;;0.49;66.69
44027;BME280;29696;55.698;37.460;2023-02-02T12:30:10;98561.88;;;0.51;66.37
44027;BME280;29696;55.698;37.460;2023-02-02T12:33:20;98554.97;;;0.64;66.36
44027;BME280;29696;55.698;37.460;2023-02-02T12:36:22;98558.75;;;0.73;65.93
44027;BME280;29696;55.698;37.460;2023-02-02T12:39:09;98560.34;;;0.75;65.25
44027;BME280;29696;55.698;37.460;2023-02-02T13:07:41;98571.19;;;0.95;65.48
44027;BME280;29696;55.698;37.460;2023-02-02T13:10:51;98569.69;;;1.05;65.63
44027;BME280;29696;55.698;37.460;2023-02-02T13:13:19;98570.38;;;0.94;65.01
44027;BME280;29696;55.698;37.460;2023-02-02T13:15:56;98571.81;;;0.85;65.12
44027;BME280;29696;55.698;37.460;2023-02-02T13:18:50;98569.59;;;0.79;65.36
44027;BME280;29696;55.698;37.460;2023-02-02T13:21:20;98563.59;;;0.64;65.76
44027;BME280;29696;55.698;37.460;2023-02-02T13:23:52;98571.53;;;0.63;66.41
44027;BME280;29696;55.698;37.460;2023-02-02T13:26:24;98565.38;;;0.64;66.60
44027;BME280;29696;55.698;37.460;2023-02-02T13:29:21;98571.66;;;0.74;66.64
44027;BME280;29696;55.698;37.460;2023-02-02T13:34:49;98574.25;;;0.74;66.44
44027;BME280;29696;55.698;37.460;2023-02-02T13:38:11;98577.34;;;0.66;66.97
44027;BME280;29696;55.698;37.460;2023-02-02T13:40:38;98567.03;;;0.65;67.06
44027;BME280;29696;55.698;37.460;2023-02-02T13:49:07;98572.47;;;0.48;67.31
44027;BME280;29696;55.698;37.460;2023-02-02T13:51:45;98580.31;;;0.33;67.92
44027;BME280;29696;55.698;37.460;2023-02-02T14:11:24;98585.03;;;0.27;69.36
44027;BME280;29696;55.698;37.460;2023-02-02T14:13:56;98592.00;;;0.26;69.50
44027;BME280;29696;55.698;37.460;2023-02-02T14:16:45;98583.94;;;0.31;69.44
44027;BME280;29696;55.698;37.460;2023-02-02T14:22:47;98598.94;;;0.54;68.89
44027;BME280;29696;55.698;37.460;2023-02-02T14:25:48;98596.22;;;0.56;68.85
44027;BME280;29696;55.698;37.460;2023-02-02T14:28:48;98601.41;;;0.56;68.77
44027;BME280;29696;55.698;37.460;2023-02-02T14:31:40;98608.94;;;0.60;68.82
44027;BME280;29696;55.698;37.460;2023-02-02T14:34:33;98611.63;;;0.59;68.40
44027;BME280;29696;55.698;37.460;2023-02-02T14:37:28;98605.97;;;0.52;68.44
44027;BME280;29696;55.698;37.460;2023-02-02T14:40:28;98611.00;;;0.41;69.09
44027;BME280;29696;55.698;37.460;2023-02-02T14:43:22;98608.16;;;0.31;69.58
44027;BME280;29696;55.698;37.460;2023-02-02T14:46:35;98612.59;;;0.29;69.84
44027;BME280;29696;55.698;37.460;2023-02-02T14:49:24;98614.47;;;0.27;70.01
44027;BME280;29696;55.698;37.460;2023-02-02T14:51:54;98627.28;;;0.16;70.08
44027;BME280;29696;55.698;37.460;2023-02-02T14:54:30;98620.06;;;0.21;70.54
44027;BME280;29696;55.698;37.460;2023-02-02T14:57:00;98627.00;;;0.20;70.67
44027;BME280;29696;55.698;37.460;2023-02-02T14:59:48;98622.28;;;0.27;70.46
44027;BME280;29696;55.698;37.460;2023-02-02T15:02:38;98631.09;;;0.25;70.43
44027;BME280;29696;55.698;37.460;2023-02-02T15:08:25;98628.56;;;0.23;70.78
44027;BME280;29696;55.698;37.460;2023-02-02T15:11:00;98626.81;;;0.23;71.12
44027;BME280;29696;55.698;37.460;2023-02-02T15:13:35;98621.22;;;0.30;71.00
44027;BME280;29696;55.698;37.460;2023-02-02T15:16:09;98626.59;;;0.27;70.21
44027;BME280;29696;55.698;37.460;2023-02-02T15:18:43;98629.50;;;0.22;70.74
44027;BME280;29696;55.698;37.460;2023-02-02T15:21:14;98626.53;;;0.28;71.10
44027;BME280;29696;55.698;37.460;2023-02-02T15:23:44;98631.81;;;0.27;70.44
44027;BME280;29696;55.698;37.460;2023-02-02T15:26:18;98631.16;;;0.23;70.81
44027;BME280;29696;55.698;37.460;2023-02-02T15:29:14;98630.78;;;0.29;71.31
44027;BME280;29696;55.698;37.460;2023-02-02T15:31:47;98628.00;;;0.18;71.20